• Join FlightAware (Why Join?)
  • Login
  • US Flag 
02:59PM EDT


 

Airport Tracker/Info


-or-


 

Live Flight TrackerFlight Track Log ✈ EJA618 ✈ 09-Jul-2013 ✈ KPIT - KORD

Flight Track Log - Related Links

Times and Time Zones

All times are in EDT time to prevent confusion due to time zone crossing. See the EJA618 flight status page for this flight to view local times or setup timezone preferences in your user account.

Time Position Orientation Groundspeed Altitude Reporting Facility
EDT Latitude Longitude Course Direction KTS MPH feet Rate Location/Type
10:11AM 40.5028 -80.3728 266° West 260 299 6,200  Level Cleveland Center
10:12AM 40.5028 -80.4739 270° West 276 318 9,500 2,580 Climbing Cleveland Center
10:13AM 40.5008 -80.5750 269° West 276 318 11,400 1,620 Climbing Cleveland Center
10:14AM 40.4986 -80.6922 269° West 289 333 12,800 1,200 Climbing Cleveland Center
10:15AM 40.4667 -81.0321 270° West  Level FlightAware Approximate
10:15AM 40.4942 -80.8153 267° West 324 373 13,900  Level Cleveland Center
10:16AM 40.4611 -81.1681 266° West  Level FlightAware Approximate
10:16AM 40.4981 -80.9461 272° West 348 400 14,900  Level Cleveland Center
10:17AM 40.5039 -81.0772 273° West 359 413 16,100 1,140 Climbing Cleveland Center
10:18AM 40.5283 -81.2058 284° West 364 419 17,200 1,080 Climbing Cleveland Center
10:19AM 40.5586 -81.3347 287° West 369 425 18,300 1,140 Climbing Cleveland Center
10:20AM 40.5828 -81.4661 284° West 374 430 19,500 1,140 Climbing Cleveland Center
10:21AM 40.6108 -81.6006 285° West 374 430 20,600 1,140 Climbing Cleveland Center
10:22AM 40.6431 -81.7322 288° West 380 437 21,800 1,200 Climbing Cleveland Center
10:23AM 40.6728 -81.8669 286° West 380 437 23,000 1,020 Climbing Cleveland Center
10:24AM 40.6983 -81.9881 286° West 375 432 23,900 1,020 Climbing Cleveland Center
10:25AM 40.7281 -82.1203 287° West 375 432 25,100 1,200 Climbing Cleveland Center
10:26AM 40.7594 -82.2497 288° West 375 432 26,300 1,140 Climbing Cleveland Center
10:27AM 40.7900 -82.3817 287° West 373 429 27,500 1,080 Climbing Indianapolis Center
10:28AM 40.8222 -82.5133 288° West 374 430 28,600 1,200 Climbing Indianapolis Center
10:29AM 40.8578 -82.6700 287° West 377 434 30,000 1,200 Climbing Indianapolis Center
10:30AM 40.8817 -82.7911 285° West 380 437 31,000 1,140 Climbing Cleveland Center
10:31AM 40.9103 -82.9239 286° West 375 432 32,200 1,140 Climbing Cleveland Center
10:32AM 40.9344 -83.0650 283° West 381 438 33,300 900 Climbing Cleveland Center
10:33AM 40.9544 -83.1978 281° West 387 445 34,000 300 Climbing Cleveland Center
10:34AM 40.9786 -83.3253 284° West 392 451 34,000  Level Cleveland Center
10:35AM 41.0083 -83.4725 285° West 405 466 34,000  Level Cleveland Center
10:36AM 41.0378 -83.6169 285° West 411 473 34,000  Level Cleveland Center
10:37AM 41.0672 -83.7614 285° West 411 473 34,000  Level Cleveland Center
10:38AM 41.0944 -83.9033 284° West 411 473 34,000  Level Cleveland Center
10:39AM 41.1378 -84.1317 284° West 403 464 34,000  Level Chicago Center
10:40AM 41.1647 -84.2756 284° West 404 465 34,000  Level Chicago Center
10:41AM 41.1878 -84.4511 280° West 403 464 34,000  Level Chicago Center
10:42AM 41.1964 -84.6011 274° West 406 467 34,000  Level Chicago Center
10:43AM 41.2056 -84.7511 275° West 406 467 34,000 -240 Level Chicago Center
10:44AM 41.2139 -84.8992 274° West 404 465 33,600 -900 Descending Chicago Center
10:46AM 41.2231 -85.0483 275° West 404 465 32,200 -1,440 Descending Chicago Center
10:47AM 41.2311 -85.1975 274° West 403 464 30,700 -1,260 Descending Chicago Center
10:48AM 41.2403 -85.3525 275° West 411 473 29,700 -960 Descending Chicago Center
10:49AM 41.2517 -85.5397 275° West 420 483 28,800 -1,020 Descending Chicago Center
10:50AM 41.2592 -85.6964 274° West 421 484 27,600 -1,320 Descending Chicago Center
10:51AM 41.2700 -85.8561 275° West 432 497 26,100 -1,260 Descending Chicago Center
10:52AM 41.3039 -86.0117 286° West 437 503 25,000 -960 Descending Chicago Center
10:53AM 41.3381 -86.1586 287° West 420 483 24,200 -1,260 Descending Chicago Center
10:54AM 41.3719 -86.3081 287° West 420 483 22,500 -1,620 Descending Chicago Center
10:55AM 41.4053 -86.4528 287° West 412 474 20,900 -1,560 Descending Chicago Center
10:56AM 41.4364 -86.5919 287° West 399 459 19,300 -1,620 Descending Chicago Center
10:57AM 41.4728 -86.7503 287° West 378 435 17,600 -1,560 Descending Chicago Center
10:58AM 41.5017 -86.8789 287° West 368 423 16,200 -1,440 Descending Chicago Center
10:59AM 41.5292 -87.0061 286° West 361 415 14,700 -1,440 Descending Chicago Center
11:00AM 41.5578 -87.1344 287° West 363 418 13,200 -1,560 Descending Chicago Center
11:01AM 41.6006 -87.2769 292° West 353 406 11,500 -1,320 Descending Chicago Center
11:02AM 41.6592 -87.3708 310° West 338 389 10,500 -1,200 Descending Chicago Center
11:03AM 41.7069 -87.4511 309° West 289 333 9,100 -1,440 Descending Chicago Center
11:04AM 41.7547 -87.5306 309° West 279 321 7,600 -1,020 Descending Chicago Center
11:05AM 41.8008 -87.6064 309° West 269 310 7,000 -300 Descending Chicago Center
11:06AM 41.8569 -87.6653 322° Northwest 234 269 7,000  Level Chicago Center
11:07AM 41.9200 -87.6722 355° North 232 267 7,000 -480 Level Chicago Center
11:08AM 41.9744 -87.6681 North 204 235 6,100 -1,080 Descending Chicago Center
11:09AM 42.0311 -87.6642 North 205 236 4,800 -1,080 Descending Chicago Center
11:10AM 42.0847 -87.6494 12° North 201 231 4,000 -660 Descending Chicago Center
11:11AM 42.1228 -87.6758 333° Northwest 194 223 3,500 -540 Descending Chicago Center
11:12AM 42.1339 -87.7392 283° West 183 211 3,000 -300 Descending Chicago Center
11:13AM 42.1047 -87.7817 227° Southwest 166 191 3,000 -300 Level Chicago Center
11:14AM 42.0678 -87.8197 217° Southwest 165 190 2,400 -780 Descending Chicago Center
11:15AM 42.0300 -87.8617 220° Southwest 171 197 1,500 -540 Descending Chicago Center
11:16AM 41.9942 -87.9017 220° Southwest 171 197 1,300 -240 Descending Chicago Center
11:18AM 41.9817 -87.9067 217° Southwest  Level Estimated
11:25AM 41.9817 -87.9067 217° Southwest  Level Estimated